createdAt,value
2019-04-05T00:00:00.751Z,6.60
2019-04-05T00:02:28.327Z,6.80
2019-04-05T00:04:55.889Z,6.70
2019-04-05T00:07:23.328Z,6.80
2019-04-05T00:09:51.219Z,6.50
2019-04-05T00:12:18.642Z,6.60
2019-04-05T00:14:46.211Z,6.50
2019-04-05T00:17:13.557Z,6.40
2019-04-05T00:19:41.113Z,6.40
2019-04-05T00:22:08.641Z,6.20
2019-04-05T00:24:36.423Z,6.40
2019-04-05T00:27:04.228Z,6.30
2019-04-05T00:29:32.363Z,6.30
2019-04-05T00:31:59.842Z,6.30
2019-04-05T00:34:27.252Z,6.10
2019-04-05T00:36:54.756Z,6.30
2019-04-05T00:39:22.411Z,6.20
2019-04-05T00:41:49.874Z,6.30
2019-04-05T00:44:17.322Z,6.60
2019-04-05T00:46:44.953Z,6.40
2019-04-05T00:49:12.507Z,6.30
2019-04-05T00:51:39.961Z,6.60
2019-04-05T00:54:07.702Z,6.90
2019-04-05T00:56:35.348Z,6.70
2019-04-05T00:59:02.788Z,6.70
2019-04-05T01:01:30.563Z,6.60
2019-04-05T01:03:58.101Z,6.50
2019-04-05T01:06:25.452Z,6.80
2019-04-05T01:08:53.175Z,6.90
2019-04-05T01:11:20.725Z,6.90
2019-04-05T01:13:48.736Z,6.90
2019-04-05T01:16:16.234Z,6.80
2019-04-05T01:18:43.793Z,7.20
2019-04-05T01:21:13.605Z,7.20
2019-04-05T01:23:41.523Z,7.00
2019-04-05T01:26:09.342Z,6.80
2019-04-05T01:28:36.701Z,6.90
2019-04-05T01:31:04.332Z,7.20
2019-04-05T01:33:31.750Z,7.50
2019-04-05T01:35:59.065Z,7.50
2019-04-05T01:38:26.574Z,7.60
2019-04-05T01:40:55.854Z,7.40
2019-04-05T01:43:23.284Z,7.60
2019-04-05T01:45:54.035Z,7.10
2019-04-05T01:48:20.433Z,7.10
2019-04-05T01:50:48.163Z,7.10
2019-04-05T01:53:15.601Z,6.90
2019-04-05T01:55:43.383Z,6.90
2019-04-05T01:58:11.195Z,6.80
2019-04-05T02:00:38.587Z,6.70
2019-04-05T02:03:05.941Z,6.80
2019-04-05T02:05:33.404Z,6.70
2019-04-05T02:08:00.765Z,7.10
2019-04-05T02:10:28.486Z,7.10
2019-04-05T02:12:55.926Z,6.80
2019-04-05T02:15:26.435Z,6.90
2019-04-05T02:17:54.235Z,6.80
2019-04-05T02:20:21.652Z,6.70
2019-04-05T02:22:49.409Z,6.50
2019-04-05T02:25:17.332Z,6.40
2019-04-05T02:27:44.848Z,6.60
2019-04-05T02:30:12.799Z,6.90
2019-04-05T02:32:40.510Z,7.30
2019-04-05T02:35:08.332Z,7.20
2019-04-05T02:37:36.271Z,7.00
2019-04-05T02:40:05.940Z,6.90
2019-04-05T02:42:33.558Z,6.90
2019-04-05T02:45:01.481Z,6.90
2019-04-05T02:47:29.397Z,6.70
2019-04-05T02:49:57.621Z,6.90
2019-04-05T02:52:27.526Z,7.20
2019-04-05T02:54:55.749Z,7.20
2019-04-05T02:57:24.838Z,7.10
2019-04-05T02:59:53.093Z,7.10
2019-04-05T03:02:20.724Z,7.40
2019-04-05T03:04:48.413Z,7.30
2019-04-05T03:07:16.222Z,7.40
2019-04-05T03:09:44.453Z,7.40
2019-04-05T03:12:12.365Z,7.60
2019-04-05T03:14:40.595Z,7.70
2019-04-05T03:17:08.995Z,7.90
2019-04-05T03:19:37.949Z,7.90
2019-04-05T03:22:08.943Z,8.00
2019-04-05T03:24:39.183Z,7.90
2019-04-05T03:27:15.725Z,7.90
2019-04-05T03:29:43.691Z,7.80
2019-04-05T03:32:11.586Z,7.70
2019-04-05T03:34:39.438Z,7.80
2019-04-05T03:37:07.414Z,7.80
2019-04-05T03:39:34.815Z,7.60
2019-04-05T03:42:02.214Z,7.60
2019-04-05T03:44:30.249Z,7.70
2019-04-05T03:46:58.233Z,7.80
2019-04-05T03:49:25.983Z,7.80
2019-04-05T03:51:53.844Z,7.70
2019-04-05T03:54:21.813Z,7.60
2019-04-05T03:56:49.938Z,7.60
2019-04-05T03:59:17.380Z,7.70
2019-04-05T04:01:45.323Z,7.80
2019-04-05T04:04:12.933Z,7.90
2019-04-05T04:06:40.486Z,7.90
2019-04-05T04:09:08.550Z,7.90
2019-04-05T04:11:36.833Z,7.90
2019-04-05T04:14:04.949Z,8.00
2019-04-05T04:16:33.062Z,7.90
2019-04-05T04:19:00.914Z,7.90
2019-04-05T04:21:35.529Z,7.40
2019-04-05T04:24:03.594Z,7.30
2019-04-05T04:26:32.212Z,7.20
2019-04-05T04:28:59.618Z,7.10
2019-04-05T04:31:27.595Z,7.10
2019-04-05T04:33:55.794Z,7.20
2019-04-05T04:36:23.898Z,7.10
2019-04-05T04:38:51.731Z,7.20
2019-04-05T04:41:19.461Z,7.60
2019-04-05T04:43:47.622Z,7.50
2019-04-05T04:46:15.076Z,7.20
2019-04-05T04:48:43.824Z,7.30
2019-04-05T04:51:11.864Z,7.50
2019-04-05T04:53:40.226Z,7.50
2019-04-05T04:56:07.726Z,7.80
2019-04-05T04:58:35.640Z,7.80
2019-04-05T05:01:03.636Z,7.70
2019-04-05T05:03:31.520Z,7.50
2019-04-05T05:05:59.178Z,7.60
2019-04-05T05:08:27.114Z,7.40
2019-04-05T05:10:55.049Z,7.50
2019-04-05T05:13:22.460Z,7.30
2019-04-05T05:15:50.402Z,7.30
2019-04-05T05:18:18.460Z,7.40
2019-04-05T05:20:46.110Z,7.00
2019-04-05T05:23:13.932Z,7.30
2019-04-05T05:25:41.712Z,7.40
2019-04-05T05:28:09.504Z,7.20
2019-04-05T05:30:36.925Z,7.10
2019-04-05T05:33:04.843Z,7.40
2019-04-05T05:35:32.654Z,7.60
2019-04-05T05:38:00.140Z,7.80
2019-04-05T05:40:34.887Z,7.90
2019-04-05T05:42:57.040Z,7.90
2019-04-05T05:45:24.659Z,8.00
2019-04-05T05:47:52.656Z,8.00
2019-04-05T05:50:20.229Z,7.90
2019-04-05T05:52:48.890Z,8.00
2019-04-05T05:55:16.797Z,8.00
2019-04-05T05:57:44.288Z,8.00
2019-04-05T06:00:13.069Z,8.20
2019-04-05T06:02:40.603Z,8.20
2019-04-05T06:05:08.115Z,7.90
2019-04-05T06:07:35.550Z,8.00
2019-04-05T06:10:03.314Z,8.00
2019-04-05T06:12:30.800Z,8.10
2019-04-05T06:14:58.395Z,8.10
2019-04-05T06:17:25.833Z,8.20
2019-04-05T06:19:53.159Z,8.10
2019-04-05T06:22:20.740Z,8.10
2019-04-05T06:24:48.462Z,8.50
2019-04-05T06:27:16.075Z,8.40
2019-04-05T06:29:43.402Z,8.50
2019-04-05T06:32:10.610Z,8.60
2019-04-05T06:34:37.936Z,8.70
2019-04-05T06:37:05.584Z,8.80
2019-04-05T06:39:32.906Z,8.60
2019-04-05T06:42:00.716Z,8.60
2019-04-05T06:44:28.268Z,8.70
2019-04-05T06:46:55.669Z,8.70
2019-04-05T06:49:22.988Z,9.00
2019-04-05T06:51:50.444Z,9.00
2019-04-05T06:54:17.939Z,9.00
2019-04-05T06:56:45.386Z,9.00
2019-04-05T06:59:32.318Z,9.10
2019-04-05T07:01:59.822Z,9.10
2019-04-05T07:04:27.310Z,9.20
2019-04-05T07:06:54.855Z,9.30
2019-04-05T07:09:22.284Z,9.20
2019-04-05T07:11:49.964Z,9.20
2019-04-05T07:14:17.701Z,9.10
2019-04-05T07:16:45.215Z,9.00
2019-04-05T07:19:13.138Z,9.20
2019-04-05T07:21:40.612Z,9.20
2019-04-05T07:24:10.268Z,9.00
2019-04-05T07:26:38.122Z,8.80
2019-04-05T07:29:06.091Z,9.00
2019-04-05T07:31:33.820Z,9.20
2019-04-05T07:34:01.270Z,9.00
2019-04-05T07:36:28.938Z,9.20
2019-04-05T07:38:56.336Z,9.40
2019-04-05T07:41:23.789Z,9.30
2019-04-05T07:43:51.251Z,9.20
2019-04-05T07:46:18.955Z,9.30
2019-04-05T07:48:46.333Z,9.20
2019-04-05T07:51:13.782Z,9.30
2019-04-05T07:53:41.376Z,9.40
2019-04-05T07:56:08.912Z,9.40
2019-04-05T07:58:36.330Z,9.40
2019-04-05T08:01:05.112Z,9.40
2019-04-05T08:03:32.600Z,9.60
2019-04-05T08:06:00.000Z,9.40
2019-04-05T08:08:56.314Z,9.30
2019-04-05T08:11:25.307Z,9.50
2019-04-05T08:13:54.888Z,9.80
2019-04-05T08:16:22.205Z,9.80
2019-04-05T08:18:57.589Z,9.90
2019-04-05T08:21:19.081Z,9.80
2019-04-05T08:23:46.432Z,9.80
2019-04-05T08:26:13.942Z,10.00
2019-04-05T08:28:41.832Z,9.90
2019-04-05T08:31:10.651Z,9.70
2019-04-05T08:33:38.765Z,9.80
2019-04-05T08:36:06.526Z,9.90
2019-04-05T08:38:34.070Z,9.80
2019-04-05T08:41:02.012Z,9.90
2019-04-05T08:43:29.438Z,10.00
2019-04-05T08:46:16.398Z,10.20
2019-04-05T08:48:43.776Z,10.10
2019-04-05T08:51:11.620Z,9.90
2019-04-05T08:53:39.337Z,9.90
2019-04-05T08:56:06.877Z,10.10
2019-04-05T08:58:34.557Z,10.30
2019-04-05T09:01:02.199Z,10.70
2019-04-05T09:03:29.828Z,10.80
2019-04-05T09:05:57.247Z,11.00
2019-04-05T09:08:25.053Z,11.40
2019-04-05T09:10:54.661Z,11.60
2019-04-05T09:13:22.144Z,11.90
2019-04-05T09:15:50.119Z,12.00
2019-04-05T09:18:17.734Z,11.80
2019-04-05T09:20:46.155Z,12.00
2019-04-05T09:23:14.590Z,11.80
2019-04-05T09:25:42.370Z,11.30
2019-04-05T09:28:09.827Z,11.20
2019-04-05T09:30:37.416Z,11.10
2019-04-05T09:33:04.858Z,10.90
2019-04-05T09:35:32.387Z,11.10
2019-04-05T09:38:00.029Z,11.00
2019-04-05T09:40:27.563Z,11.00
2019-04-05T09:42:55.178Z,11.30
2019-04-05T09:45:22.687Z,11.40
2019-04-05T09:47:50.492Z,11.50
2019-04-05T09:50:18.331Z,11.50
2019-04-05T09:52:45.962Z,11.30
2019-04-05T09:55:13.481Z,11.40
2019-04-05T09:57:41.102Z,11.50
2019-04-05T10:00:15.828Z,11.80
2019-04-05T10:02:44.105Z,11.60
2019-04-05T10:05:11.679Z,11.50
2019-04-05T10:07:53.811Z,11.60
2019-04-05T10:10:08.918Z,11.90
2019-04-05T10:12:36.438Z,11.80
2019-04-05T10:15:04.758Z,11.90
2019-04-05T10:17:32.449Z,11.60
2019-04-05T10:20:00.172Z,11.60
2019-04-05T10:22:27.758Z,11.50
2019-04-05T10:24:55.290Z,11.30
2019-04-05T10:27:23.244Z,11.40
2019-04-05T10:29:51.079Z,11.80
2019-04-05T10:32:18.471Z,12.00
2019-04-05T10:34:46.203Z,12.10
2019-04-05T10:37:14.057Z,12.30
2019-04-05T10:39:41.632Z,11.60
2019-04-05T10:42:32.507Z,11.60
2019-04-05T10:45:00.493Z,11.80
2019-04-05T10:47:29.031Z,11.70
2019-04-05T10:50:02.903Z,12.10
2019-04-05T10:52:25.841Z,12.30
2019-04-05T10:54:53.943Z,12.10
2019-04-05T10:57:22.022Z,11.70
2019-04-05T10:59:49.497Z,11.80
2019-04-05T11:02:17.571Z,12.10
2019-04-05T11:04:45.096Z,12.20
2019-04-05T11:07:12.770Z,12.20
2019-04-05T11:09:40.750Z,12.10
2019-04-05T11:12:08.831Z,12.10
2019-04-05T11:14:36.410Z,12.10
2019-04-05T11:17:05.001Z,12.30
2019-04-05T11:19:36.216Z,12.20
2019-04-05T11:22:02.061Z,12.10
2019-04-05T11:24:29.519Z,12.20
2019-04-05T11:26:57.154Z,12.40
2019-04-05T11:29:26.014Z,12.20
2019-04-05T11:31:57.196Z,12.40
2019-04-05T11:34:23.544Z,12.40
2019-04-05T11:36:51.303Z,12.50
2019-04-05T11:39:19.183Z,12.70
2019-04-05T11:41:49.060Z,12.60
2019-04-05T11:44:16.966Z,12.40
2019-04-05T11:46:44.422Z,12.20
2019-04-05T11:49:13.306Z,12.30
2019-04-05T11:51:43.151Z,12.40
2019-04-05T11:54:11.755Z,12.50
2019-04-05T11:56:39.995Z,12.70
2019-04-05T11:59:13.404Z,12.80
2019-04-05T12:01:49.174Z,13.00
2019-04-05T12:04:16.660Z,13.40
2019-04-05T12:06:44.038Z,14.30
2019-04-05T12:09:11.570Z,16.30
2019-04-05T12:11:39.035Z,18.70
2019-04-05T12:14:06.413Z,19.30
2019-04-05T12:16:36.045Z,19.20
2019-04-05T12:19:04.835Z,18.00
2019-04-05T12:21:34.814Z,17.90
2019-04-05T12:24:03.160Z,17.60
2019-04-05T12:26:32.416Z,17.00
2019-04-05T12:29:00.472Z,16.90
2019-04-05T12:31:28.050Z,16.80
2019-04-05T12:33:55.424Z,16.90
2019-04-05T12:36:23.116Z,16.70
2019-04-05T12:38:50.897Z,16.30
2019-04-05T12:41:20.181Z,15.80
2019-04-05T12:43:50.664Z,15.30
2019-04-05T12:46:16.864Z,14.90
2019-04-05T12:48:46.339Z,14.50
2019-04-05T12:51:15.556Z,14.80
2019-04-05T12:53:42.944Z,14.70
2019-04-05T12:56:10.421Z,14.30
2019-04-05T12:58:37.913Z,14.30
2019-04-05T13:01:08.135Z,14.20
2019-04-05T13:03:35.108Z,14.30
2019-04-05T13:06:02.968Z,14.40
2019-04-05T13:08:30.592Z,14.00
2019-04-05T13:10:58.474Z,13.70
2019-04-05T13:13:27.544Z,14.00
2019-04-05T13:15:55.549Z,14.20
2019-04-05T13:18:25.178Z,14.10
2019-04-05T13:20:52.284Z,14.00
2019-04-05T13:23:20.153Z,13.90
2019-04-05T13:25:47.517Z,14.00
2019-04-05T13:28:18.631Z,14.00
2019-04-05T13:30:44.380Z,13.70
2019-04-05T13:33:12.626Z,13.80
2019-04-05T13:35:40.400Z,13.60
2019-04-05T13:38:07.866Z,13.60
2019-04-05T13:40:37.026Z,13.50
2019-04-05T13:43:05.301Z,13.40
2019-04-05T13:45:34.064Z,13.60
2019-04-05T13:48:01.853Z,13.90
2019-04-05T13:50:29.483Z,14.10
2019-04-05T13:52:57.465Z,14.00
2019-04-05T13:55:25.484Z,13.80
2019-04-05T13:57:53.402Z,13.60
2019-04-05T14:00:21.123Z,13.60
2019-04-05T14:02:50.833Z,13.70
2019-04-05T14:05:18.041Z,13.40
2019-04-05T14:07:45.701Z,13.40
2019-04-05T14:10:13.375Z,13.30
2019-04-05T14:12:41.028Z,13.00
2019-04-05T14:15:11.257Z,13.00
2019-04-05T14:17:38.493Z,12.70
2019-04-05T14:20:08.964Z,12.50
2019-04-05T14:22:36.214Z,12.50
2019-04-05T14:25:04.898Z,12.50
2019-04-05T14:27:34.908Z,12.60
2019-04-05T14:30:03.168Z,12.70
2019-04-05T14:32:30.882Z,12.90
2019-04-05T14:34:58.272Z,12.90
2019-04-05T14:37:26.201Z,13.00
2019-04-05T14:39:54.191Z,12.90
2019-04-05T14:42:22.057Z,12.90
2019-04-05T14:44:49.636Z,13.10
2019-04-05T14:47:19.772Z,13.30
2019-04-05T14:49:46.861Z,13.30
2019-04-05T14:52:14.489Z,13.20
2019-04-05T14:54:43.339Z,13.20
2019-04-05T14:57:10.782Z,13.50
2019-04-05T14:59:38.418Z,13.80
2019-04-05T15:02:06.046Z,13.80
2019-04-05T15:04:33.637Z,14.00
2019-04-05T15:07:01.446Z,14.20
2019-04-05T15:09:29.123Z,14.00
2019-04-05T15:11:58.628Z,14.00
2019-04-05T15:14:25.886Z,14.00
2019-04-05T15:16:53.396Z,13.60
2019-04-05T15:19:20.901Z,13.70
2019-04-05T15:21:48.325Z,13.60
2019-04-05T15:24:17.184Z,13.60
2019-04-05T15:26:44.649Z,13.70
2019-04-05T15:29:12.145Z,13.60
2019-04-05T15:31:41.304Z,13.60
2019-04-05T15:34:09.268Z,13.50
2019-04-05T15:36:36.758Z,13.40
2019-04-05T15:39:07.651Z,13.40
2019-04-05T15:41:35.146Z,13.50
2019-04-05T15:44:05.162Z,13.30
2019-04-05T15:46:31.928Z,13.20
2019-04-05T15:48:59.331Z,13.20
2019-04-05T15:51:27.245Z,13.30
2019-04-05T15:53:54.739Z,13.10
2019-04-05T15:56:22.267Z,13.10
2019-04-05T15:58:52.290Z,13.20
2019-04-05T16:01:19.339Z,12.90
2019-04-05T16:03:47.135Z,13.00
2019-04-05T16:06:14.837Z,12.90
2019-04-05T16:08:42.434Z,12.60
2019-04-05T16:11:10.389Z,12.70
2019-04-05T16:13:37.975Z,12.50
2019-04-05T16:16:05.424Z,12.60
2019-04-05T16:18:33.236Z,12.70
2019-04-05T16:21:00.949Z,12.50
2019-04-05T16:23:28.704Z,12.40
2019-04-05T16:25:56.181Z,12.50
2019-04-05T16:28:25.644Z,12.40
2019-04-05T16:30:53.555Z,12.50
2019-04-05T16:33:21.151Z,12.40
2019-04-05T16:35:48.744Z,12.50
2019-04-05T16:38:16.357Z,12.20
2019-04-05T16:40:44.120Z,12.30
2019-04-05T16:43:11.637Z,12.10
2019-04-05T16:45:39.177Z,12.20
2019-04-05T16:48:06.861Z,12.20
2019-04-05T16:50:34.505Z,12.40
2019-04-05T16:53:02.163Z,12.20
2019-04-05T16:55:29.741Z,12.20
2019-04-05T16:57:57.915Z,12.30
2019-04-05T17:00:25.314Z,12.50
2019-04-05T17:02:53.061Z,12.40
2019-04-05T17:05:20.419Z,12.20
2019-04-05T17:07:48.318Z,12.10
2019-04-05T17:10:16.135Z,11.80
2019-04-05T17:12:43.725Z,11.80
2019-04-05T17:15:11.725Z,11.90
2019-04-05T17:17:39.490Z,12.00
2019-04-05T17:20:07.514Z,12.20
2019-04-05T17:22:35.476Z,12.30
2019-04-05T17:25:03.197Z,12.20
2019-04-05T17:27:30.860Z,12.00
2019-04-05T17:29:58.434Z,12.20
2019-04-05T17:32:26.129Z,12.30
2019-04-05T17:34:54.035Z,12.20
2019-04-05T17:37:21.825Z,12.20
2019-04-05T17:39:49.275Z,11.90
2019-04-05T17:42:16.753Z,11.90
2019-04-05T17:44:44.752Z,11.80
2019-04-05T17:47:12.277Z,11.80
2019-04-05T17:49:40.289Z,11.60
2019-04-05T17:52:08.153Z,11.70
2019-04-05T17:54:35.773Z,11.40
2019-04-05T17:57:03.268Z,11.40
2019-04-05T17:59:30.909Z,11.40
2019-04-05T18:01:58.273Z,11.40
2019-04-05T18:04:25.914Z,11.40
2019-04-05T18:06:53.962Z,11.30
2019-04-05T18:09:21.460Z,11.40
2019-04-05T18:11:49.028Z,11.40
2019-04-05T18:14:16.478Z,11.40
2019-04-05T18:16:44.441Z,11.30
2019-04-05T18:19:12.152Z,11.40
2019-04-05T18:21:39.845Z,11.40
2019-04-05T18:24:07.615Z,11.20
2019-04-05T18:26:35.437Z,11.30
2019-04-05T18:29:03.256Z,11.30
2019-04-05T18:31:30.929Z,11.30
2019-04-05T18:33:58.600Z,11.20
2019-04-05T18:36:26.345Z,11.20
2019-04-05T18:38:53.853Z,11.20
2019-04-05T18:41:21.630Z,11.20
2019-04-05T18:43:49.959Z,11.20
2019-04-05T18:46:17.720Z,11.20
2019-04-05T18:48:45.336Z,11.20
2019-04-05T18:51:13.207Z,11.20
2019-04-05T18:53:41.069Z,11.20
2019-04-05T18:56:08.791Z,11.10
2019-04-05T18:58:36.536Z,11.10
2019-04-05T19:01:04.751Z,11.10
2019-04-05T19:03:33.023Z,11.20
2019-04-05T19:06:00.983Z,11.20
2019-04-05T19:08:39.027Z,11.20
2019-04-05T19:10:58.011Z,11.20
2019-04-05T19:13:25.591Z,11.20
2019-04-05T19:15:53.148Z,11.10
2019-04-05T19:18:21.112Z,11.10
2019-04-05T19:20:48.668Z,11.20
2019-04-05T19:23:16.570Z,11.20
2019-04-05T19:25:46.612Z,11.00
2019-04-05T19:28:14.135Z,10.90
2019-04-05T19:50:40.393Z,11.00
2019-04-05T19:53:08.844Z,11.10
2019-04-05T19:55:36.605Z,11.00
2019-04-05T19:58:04.479Z,11.00
2019-04-05T20:00:32.943Z,11.10
2019-04-05T20:03:00.538Z,11.10
2019-04-05T20:05:28.169Z,11.00
2019-04-05T20:07:56.770Z,10.90
2019-04-05T20:10:24.864Z,11.00
2019-04-05T20:12:53.157Z,11.00
2019-04-05T20:15:21.473Z,11.00
2019-04-05T20:17:50.428Z,11.00
2019-04-05T20:20:18.757Z,10.90
2019-04-05T20:22:47.545Z,11.00
2019-04-05T20:25:15.802Z,11.00
2019-04-05T20:27:44.503Z,10.90
2019-04-05T20:30:13.453Z,10.90
2019-04-05T20:32:41.619Z,10.90
2019-04-05T20:35:10.781Z,10.90
2019-04-05T20:37:40.190Z,10.90
2019-04-05T20:40:08.608Z,10.90
2019-04-05T20:42:36.522Z,10.90
2019-04-05T20:45:04.522Z,10.80
2019-04-05T20:47:32.110Z,10.80
2019-04-05T20:49:59.830Z,10.80
2019-04-05T20:52:29.013Z,10.70
2019-04-05T20:54:56.977Z,10.70
2019-04-05T20:57:25.638Z,10.70
2019-04-05T20:59:53.858Z,10.60
2019-04-05T21:02:22.245Z,10.30
2019-04-05T21:04:49.756Z,10.40
2019-04-05T21:07:17.503Z,10.30
2019-04-05T21:09:45.625Z,10.20
2019-04-05T21:12:14.209Z,10.20
2019-04-05T21:14:42.392Z,10.10
2019-04-05T21:17:10.791Z,10.00
2019-04-05T21:19:38.721Z,10.00
2019-04-05T21:22:06.674Z,9.90
2019-04-05T21:24:36.387Z,9.80
2019-04-05T21:27:04.365Z,9.70
2019-04-05T21:29:31.779Z,9.60
2019-04-05T21:31:59.106Z,9.60
2019-04-05T21:34:26.538Z,9.60
2019-04-05T21:36:53.840Z,9.50
2019-04-05T21:39:21.205Z,9.40
2019-04-05T21:41:49.117Z,9.30
2019-04-05T21:44:16.579Z,9.10
2019-04-05T21:46:44.441Z,9.20
2019-04-05T21:49:11.863Z,9.10
2019-04-05T21:51:39.164Z,9.20
2019-04-05T21:54:06.554Z,9.10
2019-04-05T21:56:34.116Z,9.10
2019-04-05T21:59:02.083Z,9.10
2019-04-05T22:01:29.783Z,9.00
2019-04-05T22:03:57.505Z,9.00
2019-04-05T22:06:25.235Z,8.90
2019-04-05T22:08:52.672Z,8.90
2019-04-05T22:11:20.186Z,8.80
2019-04-05T22:13:47.793Z,8.80
2019-04-05T22:16:15.355Z,8.60
2019-04-05T22:18:43.088Z,8.60
2019-04-05T22:21:10.998Z,8.60
2019-04-05T22:23:38.472Z,8.60
2019-04-05T22:26:05.995Z,8.70
2019-04-05T22:28:33.325Z,8.70
2019-04-05T22:31:00.881Z,8.60
2019-04-05T22:33:28.210Z,8.60
2019-04-05T22:35:55.651Z,8.60
2019-04-05T22:38:23.076Z,8.60
2019-04-05T22:40:50.516Z,8.60
2019-04-05T22:43:18.160Z,8.50
2019-04-05T22:45:46.012Z,8.30
2019-04-05T22:48:13.769Z,8.40
2019-04-05T22:50:41.301Z,8.50
2019-04-05T22:53:08.736Z,8.50
2019-04-05T22:55:36.289Z,8.50
2019-04-05T22:58:03.578Z,8.50
2019-04-05T23:00:30.992Z,8.40
2019-04-05T23:02:58.730Z,8.30
2019-04-05T23:05:26.180Z,8.30
2019-04-05T23:07:53.645Z,8.30
2019-04-05T23:10:21.607Z,8.30
2019-04-05T23:12:49.043Z,8.20
2019-04-05T23:15:16.397Z,8.10
2019-04-05T23:17:44.243Z,8.10
2019-04-05T23:20:11.673Z,8.00
2019-04-05T23:22:39.052Z,8.00
2019-04-05T23:25:07.309Z,8.00
2019-04-05T23:27:35.081Z,8.00
2019-04-05T23:30:04.277Z,8.10
2019-04-05T23:32:32.282Z,8.00
2019-04-05T23:34:59.733Z,8.00
2019-04-05T23:37:27.465Z,7.90
2019-04-05T23:39:55.218Z,7.80
2019-04-05T23:42:22.714Z,7.70
2019-04-05T23:44:50.256Z,7.60
2019-04-05T23:47:17.977Z,7.50
2019-04-05T23:49:45.651Z,7.60
2019-04-05T23:52:13.138Z,7.60
2019-04-05T23:54:40.705Z,7.60
2019-04-05T23:57:08.200Z,7.60
2019-04-05T23:59:36.123Z,7.60
